Mortlake, Australia
Current Conditions -  °F | °C
As of 9:00 PM on Monday 22 Dec 2014 (Local Time) from YMAV Reporting Station
Overcast Overcast  
Wind Chill: 68°   Ceiling: 11500
Heat Index: 68°   Visibility: 6mi
Dew Point: 63°   Wind: 9mph
Humidity: 83%   Direction: 190°S
Pressure: 29.71"   Gusts: NA
Location:  38.08°S, 142.81°E
Report Text: YMAV 221000Z AUTO 19008KT 180V240 9999 // SCT100 OVC115 20/17 Q1006
Loading
Personal Weather Stations






























Interactive Weather Map New forecast layout! Learn more

10-Day Weather Forecast

Advertisements
Track Severe Weather on mobile